createdAt,value
2019-05-16T00:00:40.384Z,8.30
2019-05-16T00:03:10.164Z,8.20
2019-05-16T00:05:50.833Z,8.20
2019-05-16T00:08:12.770Z,8.20
2019-05-16T00:10:42.646Z,8.10
2019-05-16T00:13:12.329Z,8.10
2019-05-16T00:15:41.956Z,8.20
2019-05-16T00:18:11.603Z,8.10
2019-05-16T00:20:41.237Z,8.10
2019-05-16T00:23:10.932Z,8.10
2019-05-16T00:25:40.569Z,8.10
2019-05-16T00:28:10.200Z,8.10
2019-05-16T00:30:39.849Z,8.00
2019-05-16T00:33:09.489Z,8.00
2019-05-16T00:35:39.124Z,8.00
2019-05-16T00:38:08.916Z,7.90
2019-05-16T00:40:38.595Z,7.80
2019-05-16T00:43:08.313Z,7.70
2019-05-16T00:45:38.544Z,7.70
2019-05-16T00:48:09.041Z,7.80
2019-05-16T00:50:39.230Z,7.80
2019-05-16T00:53:09.246Z,7.70
2019-05-16T00:55:40.073Z,7.70
2019-05-16T00:58:10.503Z,7.70
2019-05-16T01:00:49.749Z,7.60
2019-05-16T01:03:20.245Z,7.60
2019-05-16T01:05:50.085Z,7.40
2019-05-16T01:08:19.717Z,7.40
2019-05-16T01:10:51.484Z,7.40
2019-05-16T01:13:20.747Z,7.30
2019-05-16T01:15:50.390Z,7.30
2019-05-16T01:18:20.046Z,7.30
2019-05-16T01:20:49.703Z,7.30
2019-05-16T01:23:19.318Z,7.20
2019-05-16T01:25:49.006Z,7.20
2019-05-16T01:28:18.713Z,7.10
2019-05-16T01:30:49.135Z,7.10
2019-05-16T01:33:19.390Z,7.00
2019-05-16T01:35:49.266Z,7.00
2019-05-16T01:38:18.979Z,7.00
2019-05-16T01:40:49.293Z,6.90
2019-05-16T01:43:18.926Z,6.90
2019-05-16T01:45:48.893Z,6.90
2019-05-16T01:48:19.313Z,6.80
2019-05-16T01:50:49.357Z,6.80
2019-05-16T01:53:19.022Z,6.80
2019-05-16T01:55:49.063Z,6.80
2019-05-16T01:58:20.014Z,6.80
2019-05-16T02:01:02.110Z,6.80
2019-05-16T02:03:21.608Z,6.80
2019-05-16T02:05:51.327Z,6.80
2019-05-16T02:08:21.813Z,6.70
2019-05-16T02:10:51.480Z,6.70
2019-05-16T02:13:23.284Z,6.70
2019-05-16T02:15:52.391Z,6.70
2019-05-16T02:18:22.030Z,6.70
2019-05-16T02:20:51.708Z,6.60
2019-05-16T02:23:21.359Z,6.60
2019-05-16T02:25:51.000Z,6.60
2019-05-16T02:28:23.707Z,6.60
2019-05-16T02:30:52.027Z,6.50
2019-05-16T02:33:21.835Z,6.60
2019-05-16T02:35:55.425Z,6.50
2019-05-16T02:38:22.768Z,6.50
2019-05-16T02:40:55.049Z,6.50
2019-05-16T02:43:26.254Z,6.50
2019-05-16T02:45:55.083Z,6.50
2019-05-16T02:48:24.679Z,6.50
2019-05-16T02:50:54.312Z,6.60
2019-05-16T02:53:23.928Z,6.60
2019-05-16T02:55:53.549Z,6.60
2019-05-16T02:58:23.756Z,6.70
2019-05-16T03:00:53.893Z,6.60
2019-05-16T03:03:23.719Z,6.60
2019-05-16T03:05:54.240Z,6.60
2019-05-16T03:08:25.862Z,6.70
2019-05-16T03:10:56.159Z,6.70
2019-05-16T03:13:31.113Z,6.80
2019-05-16T03:16:02.074Z,6.90
2019-05-16T03:18:33.729Z,7.00
2019-05-16T03:21:04.052Z,7.10
2019-05-16T03:23:34.014Z,7.20
2019-05-16T03:26:03.683Z,7.40
2019-05-16T03:28:33.373Z,7.70
2019-05-16T03:31:05.019Z,7.90
2019-05-16T03:33:41.016Z,8.10
2019-05-16T03:36:05.708Z,8.20
2019-05-16T03:38:35.417Z,8.30
2019-05-16T03:41:05.242Z,8.40
2019-05-16T03:43:34.839Z,8.50
2019-05-16T03:46:04.491Z,8.50
2019-05-16T03:48:34.118Z,8.50
2019-05-16T03:51:03.796Z,8.60
2019-05-16T03:53:33.451Z,8.60
2019-05-16T03:56:03.046Z,8.60
2019-05-16T03:58:32.681Z,8.50
2019-05-16T04:01:02.856Z,8.60
2019-05-16T04:03:33.363Z,8.60
2019-05-16T04:06:03.184Z,8.60
2019-05-16T04:08:32.840Z,8.70
2019-05-16T04:11:02.472Z,8.70
2019-05-16T04:13:32.497Z,8.90
2019-05-16T04:16:02.229Z,9.00
2019-05-16T04:18:32.239Z,9.10
2019-05-16T04:21:02.225Z,9.20
2019-05-16T04:23:31.897Z,9.40
2019-05-16T04:26:01.780Z,9.50
2019-05-16T04:28:32.061Z,9.60
2019-05-16T04:31:02.435Z,9.80
2019-05-16T04:33:32.114Z,9.90
2019-05-16T04:36:01.768Z,10.10
2019-05-16T04:38:40.274Z,10.30
2019-05-16T04:41:02.945Z,10.50
2019-05-16T04:43:32.561Z,10.70
2019-05-16T04:46:02.257Z,10.80
2019-05-16T04:48:31.846Z,11.00
2019-05-16T04:51:01.802Z,11.30
2019-05-16T04:53:31.925Z,11.40
2019-05-16T04:56:02.088Z,11.60
2019-05-16T04:58:31.949Z,11.80
2019-05-16T05:01:01.956Z,12.10
2019-05-16T05:03:31.852Z,12.30
2019-05-16T05:06:01.738Z,12.40
2019-05-16T05:08:48.703Z,12.60
2019-05-16T05:11:02.763Z,12.70
2019-05-16T05:13:32.824Z,12.90
2019-05-16T05:16:02.439Z,13.10
2019-05-16T05:18:32.105Z,13.20
2019-05-16T05:21:01.696Z,13.20
2019-05-16T05:23:31.354Z,13.40
2019-05-16T05:26:00.961Z,13.60
2019-05-16T05:28:30.557Z,13.80
2019-05-16T05:31:00.190Z,13.80
2019-05-16T05:33:30.428Z,13.80
2019-05-16T05:36:01.105Z,14.10
2019-05-16T05:38:31.235Z,14.20
2019-05-16T05:41:00.924Z,13.90
2019-05-16T05:43:30.780Z,13.60
2019-05-16T05:46:00.910Z,13.50
2019-05-16T05:48:31.098Z,13.60
2019-05-16T05:51:00.873Z,13.70
2019-05-16T05:53:30.552Z,14.00
2019-05-16T05:56:00.830Z,14.20
2019-05-16T05:58:30.959Z,14.40
2019-05-16T06:01:00.995Z,14.70
2019-05-16T06:03:32.796Z,14.90
2019-05-16T06:06:02.006Z,14.70
2019-05-16T06:08:31.781Z,14.80
2019-05-16T06:11:01.682Z,14.80
2019-05-16T06:13:31.423Z,14.70
2019-05-16T06:16:01.174Z,14.90
2019-05-16T06:18:30.887Z,14.80
2019-05-16T06:21:00.765Z,14.70
2019-05-16T06:23:31.110Z,14.90
2019-05-16T06:26:01.079Z,15.10
2019-05-16T06:28:31.040Z,15.40
2019-05-16T06:31:02.017Z,15.40
2019-05-16T06:33:32.284Z,15.30
2019-05-16T06:36:01.979Z,15.10
2019-05-16T06:38:31.577Z,15.00
2019-05-16T06:41:01.240Z,15.30
2019-05-16T06:43:30.864Z,15.60
2019-05-16T06:46:00.828Z,15.70
2019-05-16T06:48:30.693Z,15.60
2019-05-16T06:51:02.935Z,15.90
2019-05-16T06:53:31.746Z,16.00
2019-05-16T06:56:01.547Z,16.20
2019-05-16T06:58:43.684Z,16.50
2019-05-16T07:01:03.550Z,16.00
2019-05-16T07:03:33.521Z,16.10
2019-05-16T07:06:03.186Z,16.00
2019-05-16T07:08:32.854Z,16.20
2019-05-16T07:11:02.575Z,16.50
2019-05-16T07:13:32.304Z,16.60
2019-05-16T07:16:02.003Z,16.60
2019-05-16T07:18:31.762Z,16.30
2019-05-16T07:21:01.479Z,16.40
2019-05-16T07:23:31.141Z,16.60
2019-05-16T07:26:01.133Z,16.80
2019-05-16T07:28:30.794Z,16.80
2019-05-16T07:31:06.495Z,17.20
2019-05-16T07:33:31.912Z,17.20
2019-05-16T07:36:01.629Z,17.20
2019-05-16T07:38:31.267Z,17.50
2019-05-16T07:41:00.992Z,17.70
2019-05-16T07:43:31.146Z,17.70
2019-05-16T07:46:00.972Z,17.80
2019-05-16T07:48:31.792Z,18.10
2019-05-16T07:51:01.894Z,18.00
2019-05-16T07:53:33.159Z,17.80
2019-05-16T07:56:03.114Z,18.00
2019-05-16T07:58:32.829Z,18.20
2019-05-16T08:01:07.691Z,18.00
2019-05-16T08:03:33.866Z,18.30
2019-05-16T08:06:03.628Z,18.20
2019-05-16T08:08:33.307Z,18.40
2019-05-16T08:11:02.999Z,18.20
2019-05-16T08:13:32.694Z,18.80
2019-05-16T08:16:02.400Z,19.10
2019-05-16T08:18:32.159Z,19.60
2019-05-16T08:21:01.847Z,19.60
2019-05-16T08:23:31.527Z,19.80
2019-05-16T08:26:01.705Z,20.10
2019-05-16T08:28:31.645Z,20.20
2019-05-16T08:31:01.386Z,20.30
2019-05-16T08:33:31.968Z,20.50
2019-05-16T08:38:33.688Z,20.70
2019-05-16T08:41:11.544Z,20.70
2019-05-16T08:43:34.972Z,20.90
2019-05-16T08:46:05.004Z,21.40
2019-05-16T08:48:34.682Z,21.30
2019-05-16T08:51:04.568Z,21.30
2019-05-16T08:53:34.309Z,21.10
2019-05-16T08:56:04.111Z,21.30
2019-05-16T08:58:33.907Z,21.50
2019-05-16T09:01:03.588Z,21.70
2019-05-16T09:03:33.289Z,21.80
2019-05-16T09:06:03.538Z,21.70
2019-05-16T09:08:33.221Z,21.20
2019-05-16T09:10:35.641Z,20.60
2019-05-16T09:11:26.536Z,21.50
2019-05-16T09:13:36.855Z,21.90
2019-05-16T09:16:07.716Z,22.00
2019-05-16T09:18:41.436Z,22.50
2019-05-16T09:21:08.725Z,22.20
2019-05-16T09:23:38.609Z,21.90
2019-05-16T09:26:08.406Z,21.90
2019-05-16T09:28:39.047Z,21.90
2019-05-16T09:31:09.115Z,21.10
2019-05-16T09:33:38.827Z,20.60
2019-05-16T09:36:08.506Z,20.60
2019-05-16T09:38:38.557Z,20.60
2019-05-16T09:41:08.449Z,21.10
2019-05-16T09:43:42.863Z,21.40
2019-05-16T09:46:09.571Z,21.50
2019-05-16T09:48:39.269Z,21.60
2019-05-16T09:51:08.993Z,21.90
2019-05-16T09:53:38.708Z,22.40
2019-05-16T09:56:08.549Z,22.50
2019-05-16T09:58:38.250Z,22.50
2019-05-16T10:01:08.134Z,22.50
2019-05-16T10:03:37.847Z,22.40
2019-05-16T10:06:08.217Z,21.60
2019-05-16T10:08:38.047Z,21.70
2019-05-16T10:11:07.765Z,21.90
2019-05-16T10:13:37.854Z,21.50
2019-05-16T10:16:07.690Z,21.30
2019-05-16T10:18:37.520Z,21.60
2019-05-16T10:21:08.105Z,21.60
2019-05-16T10:23:37.971Z,21.90
2019-05-16T10:26:07.729Z,22.10
2019-05-16T10:28:38.218Z,22.50
2019-05-16T10:31:08.411Z,22.90
2019-05-16T10:33:38.909Z,23.30
2019-05-16T10:36:08.959Z,23.50
2019-05-16T10:38:38.601Z,23.70
2019-05-16T10:41:08.273Z,23.60
2019-05-16T10:43:37.917Z,24.00
2019-05-16T10:46:07.603Z,24.10
2019-05-16T10:48:37.711Z,22.20
2019-05-16T10:51:07.915Z,21.70
2019-05-16T10:54:01.049Z,22.10
2019-05-16T10:56:09.179Z,22.10
2019-05-16T10:59:03.821Z,22.60
2019-05-16T11:01:26.130Z,22.70
2019-05-16T11:03:42.032Z,23.10
2019-05-16T11:06:24.843Z,23.20
2019-05-16T11:08:43.040Z,23.30
2019-05-16T11:11:12.711Z,23.30
2019-05-16T11:13:42.453Z,23.40
2019-05-16T11:16:12.166Z,23.40
2019-05-16T11:18:41.912Z,23.40
2019-05-16T11:21:11.571Z,23.30
2019-05-16T11:23:41.232Z,23.10
2019-05-16T11:26:10.955Z,23.20
2019-05-16T11:28:40.727Z,23.50
2019-05-16T11:31:10.457Z,23.70
2019-05-16T11:33:40.265Z,23.60
2019-05-16T11:36:12.682Z,23.50
2019-05-16T11:38:41.424Z,23.20
2019-05-16T11:41:11.120Z,23.20
2019-05-16T11:43:40.863Z,23.30
2019-05-16T11:46:10.574Z,22.90
2019-05-16T11:48:40.396Z,22.70
2019-05-16T11:51:10.157Z,22.80
2019-05-16T11:53:39.875Z,22.80
2019-05-16T11:56:09.680Z,23.20
2019-05-16T11:58:39.374Z,23.20
2019-05-16T12:01:09.216Z,22.50
2019-05-16T12:03:38.859Z,22.00
2019-05-16T12:06:10.560Z,21.80
2019-05-16T12:08:40.130Z,21.80
2019-05-16T12:11:09.872Z,21.80
2019-05-16T12:13:39.600Z,22.30
2019-05-16T12:16:09.357Z,22.60
2019-05-16T12:18:39.070Z,22.70
2019-05-16T12:21:08.891Z,22.60
2019-05-16T12:23:38.584Z,22.40
2019-05-16T12:26:08.323Z,22.50
2019-05-16T12:28:38.028Z,22.30
2019-05-16T12:31:07.753Z,22.10
2019-05-16T12:33:37.949Z,21.80
2019-05-16T12:36:07.823Z,21.80
2019-05-16T12:38:38.170Z,21.70
2019-05-16T12:41:08.276Z,21.70
2019-05-16T12:43:48.683Z,21.40
2019-05-16T12:46:09.384Z,21.20
2019-05-16T12:48:39.186Z,21.10
2019-05-16T12:51:09.172Z,21.20
2019-05-16T12:53:39.043Z,21.40
2019-05-16T12:56:08.946Z,21.30
2019-05-16T12:58:41.940Z,21.30
2019-05-16T13:01:09.967Z,21.30
2019-05-16T13:03:39.682Z,21.40
2019-05-16T13:06:09.363Z,20.90
2019-05-16T13:08:39.200Z,21.00
2019-05-16T13:11:09.051Z,21.10
2019-05-16T13:13:38.921Z,21.20
2019-05-16T13:16:08.988Z,21.20
2019-05-16T13:18:38.762Z,21.20
2019-05-16T13:21:08.458Z,20.60
2019-05-16T13:23:38.115Z,20.40
2019-05-16T13:26:07.916Z,20.20
2019-05-16T13:28:38.060Z,20.10
2019-05-16T13:31:08.091Z,20.30
2019-05-16T13:33:37.893Z,20.40
2019-05-16T13:36:07.808Z,20.20
2019-05-16T13:38:37.562Z,20.30
2019-05-16T13:41:07.716Z,20.50
2019-05-16T13:43:37.834Z,20.60
2019-05-16T13:46:07.754Z,20.50
2019-05-16T13:48:37.937Z,20.20
2019-05-16T13:51:14.845Z,20.20
2019-05-16T13:53:39.273Z,20.40
2019-05-16T13:56:13.137Z,20.70
2019-05-16T13:58:40.569Z,20.90
2019-05-16T14:01:10.187Z,21.20
2019-05-16T14:03:39.979Z,21.30
2019-05-16T14:06:09.770Z,21.30
2019-05-16T14:08:39.513Z,21.60
2019-05-16T14:11:10.701Z,21.70
2019-05-16T14:13:40.511Z,21.50
2019-05-16T14:16:10.261Z,21.20
2019-05-16T14:18:39.990Z,21.00
2019-05-16T14:21:09.749Z,20.90
2019-05-16T14:23:39.554Z,21.00
2019-05-16T14:26:09.237Z,20.50
2019-05-16T14:28:38.983Z,20.80
2019-05-16T14:31:08.948Z,21.10
2019-05-16T14:33:38.656Z,21.20
2019-05-16T14:36:08.442Z,21.40
2019-05-16T14:38:38.100Z,22.00
2019-05-16T14:41:08.337Z,22.70
2019-05-16T14:43:38.159Z,23.20
2019-05-16T14:46:09.676Z,23.80
2019-05-16T14:48:39.244Z,24.90
2019-05-16T14:51:08.981Z,25.50
2019-05-16T14:53:38.705Z,26.10
2019-05-16T14:56:08.563Z,26.90
2019-05-16T14:58:38.275Z,28.10
2019-05-16T15:01:07.990Z,28.30
2019-05-16T15:03:37.647Z,27.50
2019-05-16T15:06:08.504Z,26.30
2019-05-16T15:08:38.726Z,25.10
2019-05-16T15:11:08.404Z,24.20
2019-05-16T15:13:38.109Z,23.70
2019-05-16T15:16:07.865Z,23.20
2019-05-16T15:18:38.416Z,22.70
2019-05-16T15:21:09.012Z,22.10
2019-05-16T15:23:38.760Z,21.30
2019-05-16T15:26:09.403Z,21.00
2019-05-16T15:28:39.213Z,20.20
2019-05-16T15:31:10.895Z,20.10
2019-05-16T15:33:40.569Z,19.90
2019-05-16T15:36:10.252Z,19.80
2019-05-16T15:38:39.925Z,19.60
2019-05-16T15:41:09.570Z,19.60
2019-05-16T15:43:39.291Z,19.30
2019-05-16T15:46:08.986Z,19.20
2019-05-16T15:48:38.752Z,19.10
2019-05-16T15:51:09.157Z,18.90
2019-05-16T15:53:39.412Z,18.80
2019-05-16T15:56:10.501Z,18.70
2019-05-16T15:58:40.425Z,18.60
2019-05-16T16:01:10.028Z,18.40
2019-05-16T16:03:39.725Z,18.30
2019-05-16T16:06:09.610Z,18.20
2019-05-16T16:08:39.311Z,18.20
2019-05-16T16:11:09.018Z,18.10
2019-05-16T16:13:38.709Z,18.00
2019-05-16T16:16:10.383Z,17.90
2019-05-16T16:18:39.752Z,17.90
2019-05-16T16:21:09.388Z,17.90
2019-05-16T16:23:39.036Z,17.90
2019-05-16T16:26:08.680Z,17.80
2019-05-16T16:28:38.455Z,17.70
2019-05-16T16:31:08.470Z,17.50
2019-05-16T16:33:38.115Z,17.40
2019-05-16T16:36:08.045Z,17.40
2019-05-16T16:38:37.781Z,17.60
2019-05-16T16:41:08.102Z,17.40
2019-05-16T16:43:37.942Z,17.40
2019-05-16T16:46:12.973Z,17.30
2019-05-16T16:48:38.917Z,17.20
2019-05-16T16:51:08.736Z,17.10
2019-05-16T16:53:38.474Z,17.10
2019-05-16T16:56:08.155Z,17.10
2019-05-16T16:58:37.787Z,17.00
2019-05-16T17:01:07.956Z,16.90
2019-05-16T17:03:37.622Z,17.00
2019-05-16T17:06:07.437Z,16.90
2019-05-16T17:08:37.641Z,16.80
2019-05-16T17:11:07.848Z,16.70
2019-05-16T17:13:37.497Z,16.70
2019-05-16T17:16:21.564Z,16.70
2019-05-16T17:18:38.548Z,16.70
2019-05-16T17:21:08.262Z,16.60
2019-05-16T17:23:37.906Z,16.60
2019-05-16T17:26:07.703Z,16.50
2019-05-16T17:28:38.440Z,16.50
2019-05-16T17:31:08.211Z,16.40
2019-05-16T17:33:38.499Z,16.30
2019-05-16T17:36:09.460Z,16.30
2019-05-16T17:38:39.344Z,16.20
2019-05-16T17:41:09.189Z,16.00
2019-05-16T17:43:38.975Z,15.90
2019-05-16T17:46:08.631Z,15.90
2019-05-16T17:48:38.425Z,16.00
2019-05-16T17:51:08.112Z,15.90
2019-05-16T17:53:37.845Z,15.90
2019-05-16T17:56:07.649Z,15.80
2019-05-16T17:58:37.422Z,15.70
2019-05-16T18:01:08.872Z,15.60
2019-05-16T18:03:38.515Z,15.50
2019-05-16T18:06:08.382Z,15.50
2019-05-16T18:08:38.281Z,15.50
2019-05-16T18:11:08.146Z,15.50
2019-05-16T18:13:37.928Z,15.50
2019-05-16T18:16:07.726Z,15.40
2019-05-16T18:18:37.856Z,15.20
2019-05-16T18:21:07.646Z,15.20
2019-05-16T18:23:37.353Z,15.10
2019-05-16T18:26:07.866Z,15.10
2019-05-16T18:28:37.876Z,15.10
2019-05-16T18:31:07.646Z,15.00
2019-05-16T18:33:37.401Z,15.00
2019-05-16T18:36:07.669Z,14.90
2019-05-16T18:38:37.629Z,14.90
2019-05-16T18:41:07.992Z,14.90
2019-05-16T18:43:37.690Z,14.70
2019-05-16T18:46:07.524Z,14.60
2019-05-16T18:48:38.387Z,14.50
2019-05-16T18:51:08.092Z,14.50
2019-05-16T18:53:37.794Z,14.40
2019-05-16T18:56:07.941Z,14.40
2019-05-16T18:58:37.840Z,14.30
2019-05-16T19:01:07.472Z,14.30
2019-05-16T19:03:37.317Z,14.30
2019-05-16T19:06:07.763Z,14.30
2019-05-16T19:08:37.566Z,14.20
2019-05-16T19:11:07.743Z,14.10
2019-05-16T19:13:37.435Z,14.10
2019-05-16T19:16:07.214Z,14.10
2019-05-16T19:18:37.057Z,14.00
2019-05-16T19:21:07.546Z,14.00
2019-05-16T19:23:37.763Z,13.90
2019-05-16T19:26:07.622Z,13.80
2019-05-16T19:28:37.521Z,13.80
2019-05-16T19:31:07.424Z,13.70
2019-05-16T19:33:37.122Z,13.70
2019-05-16T19:36:07.438Z,13.60
2019-05-16T19:38:37.560Z,13.50
2019-05-16T19:41:08.210Z,13.50
2019-05-16T19:43:38.007Z,13.40
2019-05-16T19:46:07.714Z,13.30
2019-05-16T19:48:37.439Z,13.20
2019-05-16T19:51:07.582Z,13.20
2019-05-16T19:53:37.366Z,13.10
2019-05-16T19:56:07.448Z,13.10
2019-05-16T19:58:37.369Z,13.10
2019-05-16T20:01:07.111Z,13.00
2019-05-16T20:03:36.920Z,13.00
2019-05-16T20:06:07.492Z,13.00
2019-05-16T20:08:37.526Z,13.00
2019-05-16T20:11:07.345Z,12.90
2019-05-16T20:13:37.034Z,12.80
2019-05-16T20:16:06.684Z,12.70
2019-05-16T20:18:37.365Z,12.70
2019-05-16T20:21:07.085Z,12.70
2019-05-16T20:23:37.087Z,12.60
2019-05-16T20:26:07.813Z,12.50
2019-05-16T20:28:37.624Z,12.40
2019-05-16T20:31:07.874Z,12.40
2019-05-16T20:33:37.898Z,12.40
2019-05-16T20:36:09.435Z,12.30
2019-05-16T20:38:38.923Z,12.20
2019-05-16T20:41:08.604Z,12.20
2019-05-16T20:43:38.230Z,12.20
2019-05-16T20:46:07.895Z,12.20
2019-05-16T20:48:37.643Z,12.20
2019-05-16T20:51:07.461Z,12.20
2019-05-16T20:53:37.621Z,12.10
2019-05-16T20:56:07.248Z,12.00
2019-05-16T20:58:36.877Z,12.10
2019-05-16T21:01:07.015Z,12.00
2019-05-16T21:03:37.791Z,12.00
2019-05-16T21:06:08.709Z,12.00
2019-05-16T21:08:38.513Z,12.10
2019-05-16T21:11:08.320Z,12.00
2019-05-16T21:13:38.162Z,11.90
2019-05-16T21:16:07.967Z,11.90
2019-05-16T21:18:37.897Z,12.00
2019-05-16T21:21:07.895Z,11.90
2019-05-16T21:23:37.719Z,12.00
2019-05-16T21:26:07.478Z,11.90
2019-05-16T21:28:37.193Z,11.80
2019-05-16T21:31:07.490Z,11.80
2019-05-16T21:33:37.650Z,11.80
2019-05-16T21:36:07.498Z,11.70
2019-05-16T21:38:37.558Z,11.70
2019-05-16T21:41:07.488Z,11.60
2019-05-16T21:43:37.621Z,11.50
2019-05-16T21:46:07.534Z,11.40
2019-05-16T21:48:37.252Z,11.30
2019-05-16T21:51:07.960Z,11.30
2019-05-16T21:53:37.808Z,11.20
2019-05-16T21:56:07.629Z,11.20
2019-05-16T21:58:37.443Z,11.20
2019-05-16T22:01:08.836Z,11.30
2019-05-16T22:03:38.569Z,11.30
2019-05-16T22:06:08.333Z,11.20
2019-05-16T22:08:38.068Z,11.10
2019-05-16T22:11:07.916Z,11.00
2019-05-16T22:13:37.726Z,10.90
2019-05-16T22:16:08.162Z,10.80
2019-05-16T22:18:38.553Z,10.70
2019-05-16T22:21:08.463Z,10.70
2019-05-16T22:23:38.195Z,10.60
2019-05-16T22:26:08.108Z,10.60
2019-05-16T22:28:37.828Z,10.60
2019-05-16T22:31:07.825Z,10.50
2019-05-16T22:33:37.725Z,10.50
2019-05-16T22:36:07.776Z,10.40
2019-05-16T22:38:37.650Z,10.40
2019-05-16T22:41:10.574Z,10.30
2019-05-16T22:43:38.923Z,10.30
2019-05-16T22:46:10.027Z,10.20
2019-05-16T22:48:39.905Z,10.20
2019-05-16T22:51:09.666Z,10.20
2019-05-16T22:53:39.454Z,10.10
2019-05-16T22:56:09.195Z,10.10
2019-05-16T22:58:38.968Z,10.10
2019-05-16T23:01:08.847Z,10.00
2019-05-16T23:03:38.519Z,9.90
2019-05-16T23:06:08.301Z,9.80
2019-05-16T23:08:38.020Z,9.70
2019-05-16T23:11:07.804Z,9.70
2019-05-16T23:13:37.611Z,9.60
2019-05-16T23:16:07.292Z,9.70
2019-05-16T23:18:37.525Z,9.70
2019-05-16T23:21:07.374Z,9.70
2019-05-16T23:23:37.371Z,9.70
2019-05-16T23:26:07.143Z,9.70
2019-05-16T23:28:36.992Z,9.70
2019-05-16T23:31:06.914Z,9.60
2019-05-16T23:33:36.753Z,9.70
2019-05-16T23:36:07.066Z,9.70
2019-05-16T23:38:37.121Z,9.70
2019-05-16T23:41:07.084Z,9.70
2019-05-16T23:43:37.537Z,9.90
2019-05-16T23:46:07.517Z,9.90
2019-05-16T23:48:37.292Z,9.80
2019-05-16T23:51:07.828Z,9.70
2019-05-16T23:53:37.731Z,9.80
2019-05-16T23:56:07.714Z,9.80
2019-05-16T23:58:37.352Z,9.80
